Time;durP1;ratioP1;P1;durP2;ratioP2;P2;SDS_P1;SDS_P2;PMS_P1;PMS_P2;Temp;Humidity;BMP_temperature;BMP_pressure;BME280_temperature;BME280_humidity;BME280_pressure;Samples;Min_cycle;Max_cycle;Signal;HPM_P1;HPM_P2
2021/12/28 00:01:06;;;;;;;;;2.33;0.00;;;;;;;;5023055;28;48576;-67
2021/12/28 00:03:31;;;;;;;;;0.00;0.00;;;;;;;;5023641;28;46434;-66
2021/12/28 00:05:58;;;;;;;;;1.33;1.00;;;;;;;;5030342;28;45627;-66
2021/12/28 00:08:24;;;;;;;;;2.33;0.00;;;;;;;;5030816;28;45782;-67
2021/12/28 00:10:49;;;;;;;;;0.33;0.33;;;;;;;;5021379;28;48223;-67
2021/12/28 00:13:16;;;;;;;;;0.33;0.00;;;;;;;;5031763;28;46261;-67
2021/12/28 00:18:12;;;;;;;;;0.67;0.33;;;;;;;;5043454;28;46127;-67
2021/12/28 00:20:39;;;;;;;;;0.00;0.00;;;;;;;;5032468;28;48098;-66
2021/12/28 00:23:15;;;;;;;;;1.33;0.00;;;;;;;;5032129;28;46297;-66
2021/12/28 00:25:41;;;;;;;;;2.67;0.00;;;;;;;;5025145;28;45443;-66
2021/12/28 00:28:06;;;;;;;;;0.00;0.00;;;;;;;;5044523;28;45766;-65
2021/12/28 00:30:32;;;;;;;;;0.33;0.33;;;;;;;;5044034;28;46644;-67
2021/12/28 00:32:57;;;;;;;;;0.00;0.00;;;;;;;;5050357;28;45757;-67
2021/12/28 00:35:23;;;;;;;;;0.00;0.00;;;;;;;;5031725;28;45521;-66
2021/12/28 00:37:49;;;;;;;;;0.67;0.67;;;;;;;;5037911;28;45680;-66
2021/12/28 00:40:14;;;;;;;;;1.00;1.00;;;;;;;;5056531;28;45618;-66
2021/12/28 00:42:40;;;;;;;;;1.00;0.00;;;;;;;;5055449;28;45810;-67
2021/12/28 00:45:05;;;;;;;;;1.00;1.00;;;;;;;;5037580;28;45734;-67
2021/12/28 00:47:30;;;;;;;;;1.00;1.00;;;;;;;;5057218;28;45709;-67
2021/12/28 00:49:56;;;;;;;;;1.00;1.00;;;;;;;;5054241;28;47271;-67
2021/12/28 00:52:21;;;;;;;;;0.67;0.67;;;;;;;;5057321;28;45799;-66
2021/12/28 00:54:47;;;;;;;;;0.67;0.00;;;;;;;;5039654;28;45744;-67
2021/12/28 00:57:12;;;;;;;;;0.00;0.00;;;;;;;;5050821;28;45979;-66
2021/12/28 00:59:37;;;;;;;;;1.00;1.00;;;;;;;;5038596;28;48746;-66
2021/12/28 01:02:02;;;;;;;;;0.67;0.67;;;;;;;;5038513;28;45432;-66
2021/12/28 01:04:28;;;;;;;;;1.00;1.00;;;;;;;;5056931;28;46109;-66
2021/12/28 01:06:53;;;;;;;;;0.00;0.00;;;;;;;;5036748;28;45446;-67
2021/12/28 01:09:18;;;;;;;;;0.00;0.00;;;;;;;;5050390;28;45735;-66
2021/12/28 01:11:44;;;;;;;;;0.00;0.00;;;;;;;;5036481;28;45614;-67
2021/12/28 01:14:09;;;;;;;;;0.00;0.00;;;;;;;;5049930;28;45509;-66
2021/12/28 01:16:34;;;;;;;;;0.00;0.00;;;;;;;;5038209;28;45462;-67
2021/12/28 01:18:59;;;;;;;;;0.00;0.00;;;;;;;;5056555;28;45637;-67
2021/12/28 01:21:25;;;;;;;;;0.00;0.00;;;;;;;;5038883;28;46227;-66
2021/12/28 01:23:50;;;;;;;;;0.00;0.00;;;;;;;;5036493;28;45497;-66
2021/12/28 01:26:15;;;;;;;;;0.00;0.00;;;;;;;;5037877;28;45695;-65
2021/12/28 01:28:41;;;;;;;;;0.00;0.00;;;;;;;;5037733;28;47405;-66
2021/12/28 01:31:06;;;;;;;;;0.00;0.00;;;;;;;;5039868;28;45442;-66
2021/12/28 01:33:31;;;;;;;;;0.00;0.00;;;;;;;;5052521;28;45636;-65
2021/12/28 01:35:58;;;;;;;;;0.00;0.00;;;;;;;;5052420;28;45481;-66
2021/12/28 01:38:23;;;;;;;;;0.00;0.00;;;;;;;;5056147;28;46593;-66
2021/12/28 01:40:49;;;;;;;;;0.00;0.00;;;;;;;;5056353;28;45997;-66
2021/12/28 01:43:17;;;;;;;;;0.00;0.00;;;;;;;;5055907;28;45560;-66
2021/12/28 01:45:47;;;;;;;;;0.00;0.00;;;;;;;;5056813;28;45482;-66
2021/12/28 01:48:15;;;;;;;;;0.67;0.00;;;;;;;;5051578;28;45803;-67
2021/12/28 01:50:40;;;;;;;;;0.00;0.00;;;;;;;;5053128;28;45594;-65
2021/12/28 01:53:06;;;;;;;;;0.33;0.00;;;;;;;;5052805;28;45539;-65
2021/12/28 01:55:32;;;;;;;;;0.00;0.00;;;;;;;;5034216;28;46098;-65
2021/12/28 01:57:58;;;;;;;;;0.00;0.00;;;;;;;;5052793;28;46600;-66
2021/12/28 02:00:24;;;;;;;;;0.00;0.00;;;;;;;;5053503;28;45591;-65
2021/12/28 02:02:50;;;;;;;;;0.00;0.00;;;;;;;;5052548;28;45457;-65
2021/12/28 02:05:15;;;;;;;;;0.00;0.00;;;;;;;;5034182;28;45863;-64
2021/12/28 02:07:40;;;;;;;;;0.00;0.00;;;;;;;;5034084;28;48194;-64
2021/12/28 02:10:06;;;;;;;;;0.00;0.00;;;;;;;;5034361;28;46295;-65
2021/12/28 02:12:31;;;;;;;;;0.00;0.00;;;;;;;;5035562;28;45483;-65
2021/12/28 02:14:57;;;;;;;;;0.00;0.00;;;;;;;;5047234;28;45594;-65
2021/12/28 02:17:22;;;;;;;;;0.00;0.00;;;;;;;;5047149;28;46219;-63
2021/12/28 02:19:47;;;;;;;;;0.00;0.00;;;;;;;;5052821;28;46066;-65
2021/12/28 02:22:12;;;;;;;;;0.00;0.00;;;;;;;;5047500;28;45550;-64
2021/12/28 02:24:38;;;;;;;;;0.00;0.00;;;;;;;;5035095;28;46058;-64
2021/12/28 02:27:03;;;;;;;;;0.00;0.00;;;;;;;;5052031;28;45649;-65
2021/12/28 02:29:28;;;;;;;;;0.00;0.00;;;;;;;;5034065;28;46356;-64
2021/12/28 02:31:55;;;;;;;;;0.00;0.00;;;;;;;;5052565;28;45704;-64
2021/12/28 02:34:24;;;;;;;;;0.00;0.00;;;;;;;;5048819;28;45782;-63
2021/12/28 02:36:50;;;;;;;;;0.00;0.00;;;;;;;;5047904;28;45758;-64
2021/12/28 02:39:15;;;;;;;;;0.00;0.00;;;;;;;;5048766;28;45812;-63
2021/12/28 02:41:41;;;;;;;;;0.00;0.00;;;;;;;;5048708;28;45584;-64
2021/12/28 02:44:06;;;;;;;;;0.00;0.00;;;;;;;;5046899;28;45406;-64
2021/12/28 02:46:31;;;;;;;;;0.00;0.00;;;;;;;;5045873;28;45489;-64
2021/12/28 02:48:56;;;;;;;;;0.00;0.00;;;;;;;;5048537;28;45357;-63
2021/12/28 02:51:22;;;;;;;;;1.00;0.00;;;;;;;;5046799;28;45435;-64
2021/12/28 02:53:47;;;;;;;;;2.00;0.00;;;;;;;;5031519;28;45434;-63
2021/12/28 02:56:14;;;;;;;;;0.00;0.00;;;;;;;;5047203;28;45648;-63
2021/12/28 02:58:41;;;;;;;;;0.00;0.00;;;;;;;;5051648;28;45390;-62
2021/12/28 03:01:07;;;;;;;;;0.00;0.00;;;;;;;;5051344;28;45449;-63
2021/12/28 03:03:33;;;;;;;;;0.00;0.00;;;;;;;;5033782;28;45825;-63
2021/12/28 03:05:59;;;;;;;;;0.00;0.00;;;;;;;;5051310;28;46090;-63
2021/12/28 03:08:26;;;;;;;;;1.00;0.00;;;;;;;;5032077;28;46299;-62
2021/12/28 03:10:52;;;;;;;;;0.67;0.00;;;;;;;;5046162;28;45577;-62
2021/12/28 03:13:20;;;;;;;;;0.00;0.00;;;;;;;;5049686;28;45820;-62
2021/12/28 03:15:45;;;;;;;;;0.00;0.00;;;;;;;;5047183;28;46384;-62
2021/12/28 03:18:11;;;;;;;;;0.00;0.00;;;;;;;;5033268;28;45443;-63
2021/12/28 03:20:36;;;;;;;;;0.00;0.00;;;;;;;;5051125;28;45636;-63
2021/12/28 03:23:02;;;;;;;;;0.00;0.00;;;;;;;;5032948;28;45613;-61
2021/12/28 03:25:27;;;;;;;;;0.00;0.00;;;;;;;;5033089;28;48874;-62
2021/12/28 03:27:53;;;;;;;;;1.00;0.00;;;;;;;;5050668;28;45546;-62
2021/12/28 03:30:18;;;;;;;;;0.00;0.00;;;;;;;;5031323;28;45597;-59
2021/12/28 03:32:43;;;;;;;;;0.00;0.00;;;;;;;;5041115;28;45671;-62
2021/12/28 03:35:10;;;;;;;;;0.00;0.00;;;;;;;;5046597;28;45390;-61
2021/12/28 03:37:35;;;;;;;;;0.00;0.00;;;;;;;;5032346;28;46685;-62
2021/12/28 03:40:02;;;;;;;;;0.00;0.00;;;;;;;;5032504;28;45427;-62
2021/12/28 03:42:27;;;;;;;;;1.00;0.00;;;;;;;;5032658;28;45436;-60
2021/12/28 03:44:53;;;;;;;;;0.00;0.00;;;;;;;;5049983;28;46176;-63
2021/12/28 03:47:18;;;;;;;;;0.00;0.00;;;;;;;;5032180;28;45941;-63
2021/12/28 03:49:44;;;;;;;;;0.00;0.00;;;;;;;;5050280;28;45683;-61
2021/12/28 03:52:09;;;;;;;;;0.67;0.00;;;;;;;;5030445;28;45508;-63
2021/12/28 03:54:34;;;;;;;;;0.00;0.00;;;;;;;;5049546;28;46515;-64
2021/12/28 03:57:00;;;;;;;;;0.00;0.00;;;;;;;;5050430;28;46875;-62
2021/12/28 03:59:25;;;;;;;;;2.33;0.00;;;;;;;;5031225;28;45747;-62
2021/12/28 04:01:51;;;;;;;;;1.00;0.00;;;;;;;;5032577;28;45609;-61
2021/12/28 04:04:16;;;;;;;;;0.00;0.00;;;;;;;;5051020;28;45952;-63
2021/12/28 04:06:41;;;;;;;;;0.00;0.00;;;;;;;;5051221;28;45498;-62
2021/12/28 04:09:07;;;;;;;;;0.00;0.00;;;;;;;;5034067;28;45517;-62
2021/12/28 04:11:33;;;;;;;;;0.00;0.00;;;;;;;;5050906;28;45721;-63
2021/12/28 04:14:00;;;;;;;;;0.00;0.00;;;;;;;;5050426;28;46087;-63
2021/12/28 04:16:25;;;;;;;;;2.67;0.00;;;;;;;;5050599;28;45583;-62
2021/12/28 04:18:51;;;;;;;;;0.00;0.00;;;;;;;;5032666;28;45418;-63
2021/12/28 04:21:17;;;;;;;;;0.00;0.00;;;;;;;;5050970;28;45730;-63
2021/12/28 04:23:42;;;;;;;;;1.00;0.00;;;;;;;;5050339;28;45690;-63
2021/12/28 04:26:07;;;;;;;;;0.00;0.00;;;;;;;;5050458;28;45703;-61
2021/12/28 04:28:32;;;;;;;;;0.00;0.00;;;;;;;;5051227;28;45444;-62
2021/12/28 04:30:58;;;;;;;;;0.67;0.00;;;;;;;;5050847;28;45423;-62
2021/12/28 04:33:24;;;;;;;;;0.00;0.00;;;;;;;;5051105;28;46662;-62
2021/12/28 04:35:49;;;;;;;;;0.00;0.00;;;;;;;;5032144;28;45582;-62
2021/12/28 04:38:15;;;;;;;;;0.00;0.00;;;;;;;;5050456;28;45744;-61
2021/12/28 04:40:40;;;;;;;;;0.00;0.00;;;;;;;;5050855;28;45979;-62
2021/12/28 04:43:06;;;;;;;;;2.67;0.67;;;;;;;;5050559;28;45794;-62
2021/12/28 04:45:31;;;;;;;;;0.33;0.00;;;;;;;;5043972;28;45532;-62
2021/12/28 04:47:57;;;;;;;;;0.00;0.00;;;;;;;;5050197;28;45464;-62
2021/12/28 04:50:23;;;;;;;;;0.00;0.00;;;;;;;;5050399;28;45469;-62
2021/12/28 04:52:49;;;;;;;;;1.00;1.00;;;;;;;;5050402;28;45707;-61
2021/12/28 04:55:15;;;;;;;;;0.00;0.00;;;;;;;;5031999;28;46019;-62
2021/12/28 04:57:41;;;;;;;;;1.00;0.00;;;;;;;;5050859;28;45601;-62
2021/12/28 05:00:08;;;;;;;;;0.00;0.00;;;;;;;;5050577;28;45775;-62
2021/12/28 05:02:33;;;;;;;;;1.00;0.00;;;;;;;;5031044;28;48368;-62
2021/12/28 05:04:58;;;;;;;;;0.00;0.00;;;;;;;;5049821;28;45762;-62
2021/12/28 05:07:23;;;;;;;;;2.00;0.00;;;;;;;;5065514;27;45447;-61
2021/12/28 05:09:49;;;;;;;;;0.33;0.00;;;;;;;;5050106;28;45335;-62
2021/12/28 05:12:14;;;;;;;;;0.00;0.00;;;;;;;;5050007;28;46140;-62
2021/12/28 05:14:40;;;;;;;;;1.00;0.00;;;;;;;;5031483;28;46414;-63
2021/12/28 05:17:05;;;;;;;;;0.00;0.00;;;;;;;;5031966;28;45795;-62
2021/12/28 05:19:30;;;;;;;;;0.33;0.00;;;;;;;;5049720;28;45692;-62
2021/12/28 05:21:56;;;;;;;;;1.00;0.00;;;;;;;;5015599;28;47480;-63
2021/12/28 05:24:21;;;;;;;;;0.00;0.00;;;;;;;;5036158;28;45794;-62
2021/12/28 05:26:46;;;;;;;;;0.00;0.00;;;;;;;;5053647;28;45548;-62
2021/12/28 05:29:11;;;;;;;;;2.33;0.00;;;;;;;;5068894;28;45851;-62
2021/12/28 05:31:37;;;;;;;;;2.00;0.00;;;;;;;;5034122;28;47490;-62
2021/12/28 05:34:02;;;;;;;;;0.00;0.00;;;;;;;;5053360;28;45521;-61
2021/12/28 05:36:27;;;;;;;;;4.00;0.00;;;;;;;;5054142;28;45477;-63
2021/12/28 05:38:53;;;;;;;;;1.00;0.00;;;;;;;;5053283;28;45681;-62
2021/12/28 05:41:18;;;;;;;;;3.00;0.00;;;;;;;;5053021;28;45512;-63
2021/12/28 05:43:43;;;;;;;;;0.67;0.00;;;;;;;;5034917;28;45766;-62
2021/12/28 05:46:08;;;;;;;;;0.00;0.00;;;;;;;;5053547;28;45719;-62
2021/12/28 05:48:34;;;;;;;;;0.00;0.00;;;;;;;;5035829;28;45413;-61
2021/12/28 05:50:59;;;;;;;;;2.00;0.67;;;;;;;;5052829;28;47781;-62
2021/12/28 05:53:25;;;;;;;;;1.33;0.67;;;;;;;;5052855;28;45865;-61
2021/12/28 05:55:50;;;;;;;;;1.00;0.00;;;;;;;;5035033;28;45524;-62
2021/12/28 05:58:15;;;;;;;;;2.00;0.00;;;;;;;;5034897;28;45522;-62
2021/12/28 06:00:41;;;;;;;;;0.00;0.00;;;;;;;;5035643;28;48881;-62
2021/12/28 06:03:06;;;;;;;;;0.00;0.00;;;;;;;;5053621;28;45529;-62
2021/12/28 06:05:31;;;;;;;;;0.00;0.00;;;;;;;;5052447;28;45498;-60
2021/12/28 06:07:57;;;;;;;;;0.00;0.00;;;;;;;;5034807;28;45490;-62
2021/12/28 06:10:22;;;;;;;;;1.33;0.67;;;;;;;;5052993;28;46501;-61
2021/12/28 06:12:49;;;;;;;;;2.00;0.00;;;;;;;;5034913;28;46117;-61
2021/12/28 06:15:14;;;;;;;;;0.33;0.33;;;;;;;;5035019;28;45549;-62
2021/12/28 06:17:40;;;;;;;;;1.33;0.33;;;;;;;;5034235;28;45648;-61
2021/12/28 06:20:05;;;;;;;;;1.33;0.00;;;;;;;;5034145;28;47565;-61
2021/12/28 06:22:31;;;;;;;;;1.33;1.00;;;;;;;;5034488;28;46254;-62
2021/12/28 06:24:57;;;;;;;;;2.00;1.00;;;;;;;;5034744;28;45769;-62
2021/12/28 06:27:22;;;;;;;;;0.00;0.00;;;;;;;;5053152;28;45729;-62
2021/12/28 06:29:48;;;;;;;;;3.00;1.00;;;;;;;;5052109;28;46408;-61
2021/12/28 06:32:13;;;;;;;;;1.00;1.00;;;;;;;;5052231;28;45390;-62
2021/12/28 06:34:38;;;;;;;;;3.00;0.67;;;;;;;;5052055;28;45370;-62
2021/12/28 06:37:04;;;;;;;;;2.00;0.00;;;;;;;;5052606;28;45584;-62
2021/12/28 06:39:29;;;;;;;;;2.33;1.67;;;;;;;;5053012;28;46271;-63
2021/12/28 06:41:54;;;;;;;;;1.00;0.00;;;;;;;;5051942;28;45706;-63
2021/12/28 06:44:20;;;;;;;;;1.00;1.00;;;;;;;;5052114;28;45731;-63
2021/12/28 06:46:46;;;;;;;;;0.00;0.00;;;;;;;;5052282;28;45485;-63
2021/12/28 06:49:12;;;;;;;;;0.67;0.67;;;;;;;;5034105;28;48723;-62
2021/12/28 06:51:37;;;;;;;;;4.33;1.00;;;;;;;;5034708;28;46039;-62
2021/12/28 06:54:02;;;;;;;;;1.33;0.67;;;;;;;;5033462;28;45481;-64
2021/12/28 06:56:27;;;;;;;;;1.00;1.00;;;;;;;;5052203;28;45512;-64
2021/12/28 06:58:52;;;;;;;;;1.00;1.00;;;;;;;;5033797;28;47417;-64
2021/12/28 07:01:18;;;;;;;;;1.33;0.00;;;;;;;;5033940;28;45516;-64
2021/12/28 07:03:43;;;;;;;;;4.00;1.00;;;;;;;;5052720;28;46062;-64
2021/12/28 07:06:09;;;;;;;;;1.33;1.33;;;;;;;;5034205;28;45415;-63
2021/12/28 07:08:34;;;;;;;;;3.00;2.00;;;;;;;;5051705;28;47538;-64
2021/12/28 07:11:00;;;;;;;;;1.67;0.67;;;;;;;;5033548;28;45424;-65
2021/12/28 07:13:25;;;;;;;;;1.00;1.00;;;;;;;;5052165;28;45355;-63
2021/12/28 07:15:51;;;;;;;;;2.00;2.00;;;;;;;;5052172;28;45702;-64
2021/12/28 07:18:16;;;;;;;;;1.00;1.00;;;;;;;;5033992;28;48779;-64
2021/12/28 07:20:42;;;;;;;;;0.00;0.00;;;;;;;;5051550;28;45578;-64
2021/12/28 07:23:07;;;;;;;;;1.00;0.00;;;;;;;;5051797;28;45439;-63
2021/12/28 07:25:33;;;;;;;;;2.67;1.00;;;;;;;;5033434;28;45461;-63
2021/12/28 07:27:58;;;;;;;;;2.67;1.67;;;;;;;;5051572;28;45599;-63
2021/12/28 07:30:23;;;;;;;;;1.67;1.33;;;;;;;;5052181;28;45341;-62
2021/12/28 07:32:48;;;;;;;;;2.33;0.67;;;;;;;;5051349;28;45422;-63
2021/12/28 07:35:14;;;;;;;;;2.00;1.00;;;;;;;;5051685;28;45457;-62
2021/12/28 07:37:39;;;;;;;;;3.67;2.33;;;;;;;;5051250;28;46195;-63
2021/12/28 07:40:06;;;;;;;;;2.00;1.00;;;;;;;;5033360;28;45715;-64
2021/12/28 07:42:31;;;;;;;;;3.00;1.00;;;;;;;;5034109;28;45753;-62
2021/12/28 07:44:56;;;;;;;;;3.33;2.67;;;;;;;;5050230;28;46054;-62
2021/12/28 07:47:21;;;;;;;;;3.33;2.33;;;;;;;;5051009;28;45616;-62
2021/12/28 07:49:47;;;;;;;;;4.00;1.00;;;;;;;;5051166;28;45445;-62
2021/12/28 07:52:12;;;;;;;;;3.33;1.00;;;;;;;;5051394;28;45473;-62
2021/12/28 07:54:37;;;;;;;;;6.67;3.00;;;;;;;;5034243;28;45455;-63
2021/12/28 07:57:03;;;;;;;;;0.67;0.67;;;;;;;;5051145;28;45659;-62
2021/12/28 07:59:28;;;;;;;;;1.00;1.00;;;;;;;;5050619;28;45670;-62
2021/12/28 08:01:53;;;;;;;;;2.00;1.00;;;;;;;;5066285;28;45702;-64
2021/12/28 08:04:18;;;;;;;;;2.00;1.00;;;;;;;;5051153;28;45552;-63
2021/12/28 08:06:44;;;;;;;;;1.67;1.00;;;;;;;;5032982;28;48589;-64
2021/12/28 08:09:09;;;;;;;;;1.33;1.33;;;;;;;;5033064;28;46371;-63
2021/12/28 08:11:35;;;;;;;;;1.00;0.33;;;;;;;;5032616;28;45517;-64
2021/12/28 08:14:00;;;;;;;;;3.00;1.33;;;;;;;;5051035;28;45511;-65
2021/12/28 08:16:25;;;;;;;;;2.00;1.00;;;;;;;;5050833;28;46670;-63
2021/12/28 08:18:50;;;;;;;;;2.00;1.00;;;;;;;;5050972;28;45711;-64
2021/12/28 08:21:16;;;;;;;;;0.33;0.33;;;;;;;;5051216;28;45433;-63
2021/12/28 08:23:41;;;;;;;;;1.67;1.67;;;;;;;;5050830;28;46080;-64
2021/12/28 08:26:07;;;;;;;;;1.67;1.67;;;;;;;;5050495;28;46043;-65
2021/12/28 08:28:32;;;;;;;;;2.00;1.00;;;;;;;;5032442;28;45753;-66
2021/12/28 08:30:57;;;;;;;;;0.00;0.00;;;;;;;;5050740;28;45539;-65
2021/12/28 08:33:23;;;;;;;;;3.00;0.00;;;;;;;;5051233;28;45424;-65
2021/12/28 08:35:49;;;;;;;;;0.00;0.00;;;;;;;;5032088;28;47646;-65
2021/12/28 08:38:14;;;;;;;;;1.00;0.00;;;;;;;;5050503;28;45993;-64
2021/12/28 08:40:40;;;;;;;;;0.00;0.00;;;;;;;;5050705;28;45812;-64
2021/12/28 08:43:07;;;;;;;;;1.00;0.00;;;;;;;;5032395;28;45402;-63
2021/12/28 08:45:33;;;;;;;;;1.00;0.00;;;;;;;;5032620;28;46570;-63
2021/12/28 08:47:59;;;;;;;;;0.00;0.00;;;;;;;;5049967;28;45563;-63
2021/12/28 08:50:24;;;;;;;;;0.00;0.00;;;;;;;;5050132;28;45528;-64
2021/12/28 08:52:50;;;;;;;;;0.00;0.00;;;;;;;;5050287;28;45452;-63
2021/12/28 08:55:15;;;;;;;;;0.67;0.00;;;;;;;;5049959;28;45644;-64
2021/12/28 08:57:41;;;;;;;;;1.33;1.00;;;;;;;;5053554;28;45683;-63
2021/12/28 09:00:08;;;;;;;;;0.00;0.00;;;;;;;;5069282;27;45909;-64
2021/12/28 09:02:34;;;;;;;;;0.00;0.00;;;;;;;;5035332;28;45418;-63
2021/12/28 09:04:59;;;;;;;;;0.00;0.00;;;;;;;;5052921;28;45518;-63
2021/12/28 09:07:24;;;;;;;;;0.00;0.00;;;;;;;;5053064;28;45488;-63
2021/12/28 09:09:49;;;;;;;;;1.00;0.00;;;;;;;;5053901;28;45920;-63
2021/12/28 09:12:15;;;;;;;;;0.00;0.00;;;;;;;;5054111;28;45678;-64
2021/12/28 09:14:40;;;;;;;;;0.00;0.00;;;;;;;;5035222;28;48438;-63
2021/12/28 09:17:12;;;;;;;;;0.67;0.67;;;;;;;;5069088;28;45750;-65
2021/12/28 09:19:38;;;;;;;;;0.33;0.33;;;;;;;;5068410;28;45511;-63
2021/12/28 09:22:04;;;;;;;;;1.33;0.67;;;;;;;;5052960;28;45531;-64
2021/12/28 09:24:29;;;;;;;;;0.00;0.00;;;;;;;;5035199;28;48684;-64
2021/12/28 09:26:55;;;;;;;;;1.67;1.00;;;;;;;;5035231;28;45833;-64
2021/12/28 09:29:20;;;;;;;;;2.00;1.00;;;;;;;;5035296;28;45980;-64
2021/12/28 09:31:45;;;;;;;;;1.00;0.00;;;;;;;;5034855;28;45613;-63
2021/12/28 09:34:10;;;;;;;;;0.67;0.67;;;;;;;;5034940;28;48914;-64
2021/12/28 09:36:40;;;;;;;;;1.00;1.00;;;;;;;;5053485;28;45427;-63
2021/12/28 09:39:06;;;;;;;;;2.00;1.00;;;;;;;;5052854;28;45575;-63
2021/12/28 09:41:32;;;;;;;;;0.67;0.67;;;;;;;;5034619;28;45552;-63
2021/12/28 09:43:57;;;;;;;;;1.00;1.00;;;;;;;;5034516;28;47610;-63
2021/12/28 09:46:23;;;;;;;;;1.00;0.00;;;;;;;;5053005;28;45497;-62
2021/12/28 09:48:48;;;;;;;;;2.33;1.33;;;;;;;;5035179;28;45499;-62
2021/12/28 09:51:13;;;;;;;;;0.67;0.67;;;;;;;;5053624;28;45480;-64
2021/12/28 09:53:38;;;;;;;;;2.00;2.00;;;;;;;;5052406;28;45776;-63
2021/12/28 09:56:04;;;;;;;;;1.00;1.00;;;;;;;;5052282;28;45854;-63
2021/12/28 09:58:32;;;;;;;;;2.00;1.00;;;;;;;;5052649;28;45551;-64
2021/12/28 10:00:57;;;;;;;;;4.33;1.00;;;;;;;;5034421;28;45497;-63
2021/12/28 10:03:24;;;;;;;;;1.00;1.00;;;;;;;;5035187;28;47490;-63
2021/12/28 10:05:49;;;;;;;;;6.33;0.00;;;;;;;;5052469;28;45888;-64
2021/12/28 10:08:15;;;;;;;;;5.00;2.33;;;;;;;;5051485;28;45360;-64
2021/12/28 10:10:42;;;;;;;;;2.67;2.67;;;;;;;;5052631;28;45456;-63
2021/12/28 10:13:09;;;;;;;;;1.00;1.00;;;;;;;;5052764;28;46130;-65
2021/12/28 10:15:39;;;;;;;;;2.00;2.00;;;;;;;;5034977;28;46598;-65
2021/12/28 10:18:06;;;;;;;;;7.67;3.00;;;;;;;;5052149;28;45561;-64
2021/12/28 10:20:36;;;;;;;;;6.33;2.00;;;;;;;;5034247;28;45492;-64
2021/12/28 10:23:04;;;;;;;;;5.33;2.00;;;;;;;;5052360;28;45566;-65
2021/12/28 10:25:32;;;;;;;;;4.00;2.00;;;;;;;;5052368;28;45553;-65
2021/12/28 10:27:58;;;;;;;;;3.67;1.67;;;;;;;;5031735;28;45517;-64
2021/12/28 10:30:26;;;;;;;;;6.67;4.00;;;;;;;;5049246;28;45609;-65
2021/12/28 10:32:56;;;;;;;;;3.00;2.00;;;;;;;;5033277;28;47611;-65
2021/12/28 10:35:24;;;;;;;;;5.00;3.00;;;;;;;;5032503;28;46311;-65
2021/12/28 10:37:51;;;;;;;;;3.67;2.00;;;;;;;;5033630;28;45573;-64
2021/12/28 10:40:31;;;;;;;;;6.67;1.33;;;;;;;;5033924;28;45793;-64
2021/12/28 10:43:02;;;;;;;;;6.67;5.00;;;;;;;;5034082;28;47653;-65
2021/12/28 10:45:36;;;;;;;;;5.67;3.00;;;;;;;;5049680;28;45482;-65
2021/12/28 10:48:21;;;;;;;;;2.00;2.00;;;;;;;;5033231;28;46150;-64
2021/12/28 10:51:00;;;;;;;;;3.00;3.00;;;;;;;;5032795;28;45636;-63
2021/12/28 10:53:34;;;;;;;;;4.67;3.33;;;;;;;;5050936;28;45497;-64
2021/12/28 10:56:00;;;;;;;;;3.67;2.00;;;;;;;;5032996;28;45802;-65
2021/12/28 10:58:39;;;;;;;;;6.67;3.00;;;;;;;;5032858;28;45441;-63
2021/12/28 11:01:07;;;;;;;;;5.00;3.00;;;;;;;;5050977;28;45612;-64
2021/12/28 11:03:34;;;;;;;;;2.00;1.67;;;;;;;;5031245;28;46387;-64
2021/12/28 11:06:04;;;;;;;;;2.00;2.00;;;;;;;;5036089;28;45409;-64
2021/12/28 11:08:29;;;;;;;;;2.00;2.00;;;;;;;;5025598;28;45532;-62
2021/12/28 11:10:56;;;;;;;;;5.00;3.33;;;;;;;;5030600;28;45718;-65
2021/12/28 11:13:23;;;;;;;;;3.00;2.67;;;;;;;;5031510;28;48336;-64
2021/12/28 11:15:49;;;;;;;;;6.00;4.00;;;;;;;;5031288;28;45486;-64
2021/12/28 11:18:34;;;;;;;;;5.00;3.67;;;;;;;;5032584;28;45839;-64
2021/12/28 11:21:02;;;;;;;;;5.67;2.67;;;;;;;;5032800;28;45947;-64
2021/12/28 11:23:29;;;;;;;;;8.33;6.67;;;;;;;;5050894;28;46399;-64
2021/12/28 11:26:03;;;;;;;;;5.67;3.00;;;;;;;;5051049;28;45354;-63
2021/12/28 11:28:29;;;;;;;;;5.67;3.00;;;;;;;;5033593;28;45616;-64
2021/12/28 11:30:57;;;;;;;;;4.00;3.67;;;;;;;;5051590;28;45457;-64
2021/12/28 11:33:23;;;;;;;;;10.67;6.33;;;;;;;;5049585;28;46084;-64
2021/12/28 11:35:48;;;;;;;;;8.00;5.00;;;;;;;;5051447;28;45853;-65
2021/12/28 11:38:14;;;;;;;;;4.67;4.67;;;;;;;;5032421;28;45396;-64
2021/12/28 11:40:39;;;;;;;;;4.33;3.33;;;;;;;;5026329;28;45535;-64
2021/12/28 11:43:04;;;;;;;;;3.33;3.00;;;;;;;;5022212;28;46001;-66
2021/12/28 11:45:30;;;;;;;;;8.00;2.67;;;;;;;;5044638;28;45681;-64
2021/12/28 11:47:55;;;;;;;;;6.33;6.00;;;;;;;;5044717;28;45433;-65
2021/12/28 11:50:21;;;;;;;;;4.00;1.00;;;;;;;;5047522;28;46059;-65
2021/12/28 11:52:46;;;;;;;;;5.00;5.00;;;;;;;;5028155;28;47094;-65
2021/12/28 11:55:11;;;;;;;;;2.50;2.00;;;;;;;;5033203;28;45582;-65
2021/12/28 11:57:48;;;;;;;;;4.33;2.33;;;;;;;;5042536;28;45902;-66
2021/12/28 12:00:13;;;;;;;;;6.67;4.00;;;;;;;;5027747;28;45503;-65
2021/12/28 12:02:51;;;;;;;;;7.00;3.67;;;;;;;;5037753;28;46224;-65
2021/12/28 12:05:23;;;;;;;;;9.33;4.00;;;;;;;;5044393;28;45568;-65
2021/12/28 12:08:06;;;;;;;;;4.00;3.33;;;;;;;;5032676;28;45965;-66
2021/12/28 12:10:32;;;;;;;;;4.00;3.67;;;;;;;;5051063;28;45460;-65
2021/12/28 12:12:59;;;;;;;;;2.33;2.00;;;;;;;;5044016;28;45846;-63
2021/12/28 12:15:35;;;;;;;;;3.67;3.67;;;;;;;;5051262;28;45887;-65
2021/12/28 12:18:00;;;;;;;;;5.33;3.67;;;;;;;;5045016;28;45702;-65
2021/12/28 12:20:30;;;;;;;;;5.00;2.67;;;;;;;;5044907;28;45588;-64
2021/12/28 12:23:04;;;;;;;;;6.00;4.00;;;;;;;;5029378;28;47584;-65
2021/12/28 12:25:45;;;;;;;;;4.67;4.67;;;;;;;;5045578;28;45565;-64
2021/12/28 12:28:11;;;;;;;;;6.00;4.00;;;;;;;;5045670;28;45938;-66
2021/12/28 12:30:44;;;;;;;;;6.67;4.67;;;;;;;;5031696;28;45842;-66
2021/12/28 12:33:10;;;;;;;;;8.00;6.00;;;;;;;;5030851;28;45654;-67
2021/12/28 12:35:35;;;;;;;;;7.00;3.33;;;;;;;;5028999;28;45885;-66
2021/12/28 12:38:02;;;;;;;;;4.33;3.00;;;;;;;;5047147;28;45479;-66
2021/12/28 12:40:46;;;;;;;;;2.67;1.00;;;;;;;;5042013;28;45477;-65
2021/12/28 12:43:13;;;;;;;;;5.00;2.33;;;;;;;;5059698;28;46834;-64
2021/12/28 12:45:50;;;;;;;;;3.33;3.00;;;;;;;;5032821;28;45514;-64
2021/12/28 12:48:35;;;;;;;;;7.33;3.33;;;;;;;;5043050;28;45469;-64
2021/12/28 12:51:22;;;;;;;;;3.33;2.00;;;;;;;;5031463;28;45734;-67
2021/12/28 12:53:50;;;;;;;;;3.00;3.00;;;;;;;;5049461;28;46079;-66
2021/12/28 12:56:35;;;;;;;;;4.33;4.33;;;;;;;;5028297;28;45738;-64
2021/12/28 12:59:16;;;;;;;;;6.67;2.00;;;;;;;;5043183;28;45643;-66
2021/12/28 13:01:41;;;;;;;;;5.00;2.67;;;;;;;;5049142;28;45795;-63
2021/12/28 13:04:28;;;;;;;;;3.00;0.00;;;;;;;;5042975;28;45570;-65
2021/12/28 13:06:59;;;;;;;;;2.00;1.67;;;;;;;;5045641;28;45727;-66
2021/12/28 13:09:24;;;;;;;;;3.00;3.00;;;;;;;;5048569;28;45474;-66
2021/12/28 13:11:49;;;;;;;;;0.00;0.00;;;;;;;;5050019;28;45563;-65
2021/12/28 13:14:15;;;;;;;;;5.33;3.00;;;;;;;;5031733;28;47720;-65
2021/12/28 13:16:40;;;;;;;;;2.00;2.00;;;;;;;;5060125;28;45467;-64
2021/12/28 13:19:10;;;;;;;;;2.00;2.00;;;;;;;;5041901;28;45551;-65
2021/12/28 13:21:35;;;;;;;;;7.67;5.00;;;;;;;;5050556;28;45434;-64
2021/12/28 13:24:11;;;;;;;;;6.33;4.67;;;;;;;;5043538;28;45517;-66
2021/12/28 13:26:42;;;;;;;;;5.00;3.00;;;;;;;;5050049;28;45359;-65
2021/12/28 13:29:08;;;;;;;;;7.33;4.00;;;;;;;;5031880;28;45790;-65
2021/12/28 13:31:33;;;;;;;;;7.00;6.00;;;;;;;;5065247;28;45450;-64
2021/12/28 13:34:00;;;;;;;;;3.00;3.00;;;;;;;;5031897;28;47756;-66
2021/12/28 13:36:27;;;;;;;;;10.00;4.00;;;;;;;;5050661;28;45776;-67
2021/12/28 13:39:02;;;;;;;;;3.00;2.00;;;;;;;;5029620;28;45942;-64
2021/12/28 13:41:27;;;;;;;;;5.67;4.33;;;;;;;;5044730;28;45586;-65
2021/12/28 13:44:01;;;;;;;;;6.33;5.00;;;;;;;;5051381;28;45552;-65
2021/12/28 13:46:26;;;;;;;;;7.00;3.00;;;;;;;;5035328;28;46638;-65
2021/12/28 13:48:51;;;;;;;;;5.00;3.00;;;;;;;;5028257;28;45472;-64
2021/12/28 13:51:19;;;;;;;;;4.00;4.00;;;;;;;;5071910;27;45929;-67
2021/12/28 13:53:48;;;;;;;;;3.67;2.67;;;;;;;;5031400;28;48574;-64
2021/12/28 13:56:15;;;;;;;;;3.33;1.00;;;;;;;;5046301;28;45722;-64
2021/12/28 13:58:41;;;;;;;;;2.00;1.00;;;;;;;;5032145;28;45404;-64
2021/12/28 14:01:08;;;;;;;;;3.00;3.00;;;;;;;;5041447;28;45544;-64
2021/12/28 14:03:34;;;;;;;;;2.00;2.00;;;;;;;;5052077;28;46699;-64
2021/12/28 14:06:00;;;;;;;;;1.67;1.67;;;;;;;;5053130;28;45772;-65
2021/12/28 14:08:25;;;;;;;;;2.00;1.00;;;;;;;;5072687;27;45691;-63
2021/12/28 14:10:52;;;;;;;;;3.00;1.67;;;;;;;;5051203;28;45487;-64
2021/12/28 14:13:19;;;;;;;;;1.00;1.00;;;;;;;;5032910;28;45625;-63
2021/12/28 14:15:45;;;;;;;;;2.33;1.00;;;;;;;;5054882;28;45450;-66
2021/12/28 14:18:21;;;;;;;;;2.00;2.00;;;;;;;;5054362;28;45571;-65
2021/12/28 14:20:46;;;;;;;;;0.67;0.67;;;;;;;;5053699;27;45473;-64
2021/12/28 14:23:11;;;;;;;;;0.00;0.00;;;;;;;;5031855;28;46449;-63
2021/12/28 14:25:36;;;;;;;;;1.67;1.67;;;;;;;;5058677;28;45610;-63
2021/12/28 14:28:02;;;;;;;;;1.00;1.00;;;;;;;;5069108;27;45453;-64
2021/12/28 14:30:27;;;;;;;;;1.00;1.00;;;;;;;;5040900;28;45529;-65
2021/12/28 14:32:53;;;;;;;;;1.33;1.33;;;;;;;;5052786;28;46283;-65
2021/12/28 14:35:23;;;;;;;;;3.00;2.00;;;;;;;;5050295;28;45509;-65
2021/12/28 14:37:48;;;;;;;;;4.33;1.67;;;;;;;;5060645;28;45553;-64
2021/12/28 14:40:15;;;;;;;;;3.00;1.67;;;;;;;;5032735;28;45819;-65
2021/12/28 14:42:44;;;;;;;;;3.67;2.00;;;;;;;;5058103;28;46580;-64